sensor_id;sensor_type;location;lat;lon;timestamp;P1;durP1;ratioP1;P2;durP2;ratioP2
14883;SDS011;7534;50.762;7.000;2022-12-07T00:01:10;28.27;;;17.93;;
14883;SDS011;7534;50.762;7.000;2022-12-07T00:03:42;32.63;;;19.57;;
14883;SDS011;7534;50.762;7.000;2022-12-07T00:06:10;29.60;;;18.73;;
14883;SDS011;7534;50.762;7.000;2022-12-07T00:08:39;31.13;;;19.23;;
14883;SDS011;7534;50.762;7.000;2022-12-07T00:11:12;28.80;;;19.27;;
14883;SDS011;7534;50.762;7.000;2022-12-07T00:13:42;30.73;;;18.33;;
14883;SDS011;7534;50.762;7.000;2022-12-07T00:16:10;28.93;;;18.73;;
14883;SDS011;7534;50.762;7.000;2022-12-07T00:18:40;29.33;;;19.07;;
14883;SDS011;7534;50.762;7.000;2022-12-07T00:21:11;29.03;;;18.83;;
14883;SDS011;7534;50.762;7.000;2022-12-07T00:23:44;31.50;;;20.67;;
14883;SDS011;7534;50.762;7.000;2022-12-07T00:26:19;31.50;;;18.90;;
14883;SDS011;7534;50.762;7.000;2022-12-07T00:28:47;30.10;;;19.57;;
14883;SDS011;7534;50.762;7.000;2022-12-07T00:31:17;31.43;;;19.53;;
14883;SDS011;7534;50.762;7.000;2022-12-07T00:33:45;28.37;;;19.47;;
14883;SDS011;7534;50.762;7.000;2022-12-07T00:36:12;32.00;;;20.17;;
14883;SDS011;7534;50.762;7.000;2022-12-07T00:38:44;34.30;;;19.77;;
14883;SDS011;7534;50.762;7.000;2022-12-07T00:41:11;34.00;;;20.40;;
14883;SDS011;7534;50.762;7.000;2022-12-07T00:43:40;31.13;;;20.10;;
14883;SDS011;7534;50.762;7.000;2022-12-07T00:46:08;28.90;;;19.97;;
14883;SDS011;7534;50.762;7.000;2022-12-07T00:48:34;31.00;;;19.37;;
14883;SDS011;7534;50.762;7.000;2022-12-07T00:51:00;29.97;;;19.53;;
14883;SDS011;7534;50.762;7.000;2022-12-07T00:53:26;28.43;;;18.63;;
14883;SDS011;7534;50.762;7.000;2022-12-07T00:55:52;30.27;;;19.40;;
14883;SDS011;7534;50.762;7.000;2022-12-07T00:58:20;27.07;;;18.93;;
14883;SDS011;7534;50.762;7.000;2022-12-07T01:00:46;33.13;;;20.77;;
14883;SDS011;7534;50.762;7.000;2022-12-07T01:03:12;31.93;;;21.27;;
14883;SDS011;7534;50.762;7.000;2022-12-07T01:05:52;30.13;;;19.23;;
14883;SDS011;7534;50.762;7.000;2022-12-07T01:08:20;29.60;;;19.30;;
14883;SDS011;7534;50.762;7.000;2022-12-07T01:10:46;29.23;;;18.43;;
14883;SDS011;7534;50.762;7.000;2022-12-07T01:13:13;27.67;;;20.10;;
14883;SDS011;7534;50.762;7.000;2022-12-07T01:15:43;29.23;;;19.50;;
14883;SDS011;7534;50.762;7.000;2022-12-07T01:18:09;31.23;;;20.70;;
14883;SDS011;7534;50.762;7.000;2022-12-07T01:20:36;29.40;;;19.23;;
14883;SDS011;7534;50.762;7.000;2022-12-07T01:23:02;29.97;;;19.50;;
14883;SDS011;7534;50.762;7.000;2022-12-07T01:25:28;29.83;;;18.77;;
14883;SDS011;7534;50.762;7.000;2022-12-07T01:27:54;30.87;;;20.33;;
14883;SDS011;7534;50.762;7.000;2022-12-07T01:30:20;31.67;;;20.10;;
14883;SDS011;7534;50.762;7.000;2022-12-07T01:32:45;29.63;;;20.37;;
14883;SDS011;7534;50.762;7.000;2022-12-07T01:35:11;30.53;;;19.87;;
14883;SDS011;7534;50.762;7.000;2022-12-07T01:37:37;33.07;;;20.97;;
14883;SDS011;7534;50.762;7.000;2022-12-07T01:40:04;29.37;;;20.17;;
14883;SDS011;7534;50.762;7.000;2022-12-07T01:42:32;31.03;;;20.17;;
14883;SDS011;7534;50.762;7.000;2022-12-07T01:47:43;30.60;;;19.77;;
14883;SDS011;7534;50.762;7.000;2022-12-07T01:50:18;32.17;;;20.43;;
14883;SDS011;7534;50.762;7.000;2022-12-07T01:52:46;30.20;;;19.77;;
14883;SDS011;7534;50.762;7.000;2022-12-07T01:55:17;30.43;;;21.23;;
14883;SDS011;7534;50.762;7.000;2022-12-07T01:57:44;29.70;;;20.73;;
14883;SDS011;7534;50.762;7.000;2022-12-07T02:00:15;31.83;;;20.80;;
14883;SDS011;7534;50.762;7.000;2022-12-07T02:05:40;32.27;;;19.97;;
14883;SDS011;7534;50.762;7.000;2022-12-07T02:08:07;32.07;;;20.20;;
14883;SDS011;7534;50.762;7.000;2022-12-07T02:10:36;31.83;;;20.10;;
14883;SDS011;7534;50.762;7.000;2022-12-07T02:13:03;30.60;;;20.23;;
14883;SDS011;7534;50.762;7.000;2022-12-07T02:15:50;29.67;;;19.87;;
14883;SDS011;7534;50.762;7.000;2022-12-07T02:21:11;30.03;;;19.93;;
14883;SDS011;7534;50.762;7.000;2022-12-07T02:24:14;27.50;;;18.93;;
14883;SDS011;7534;50.762;7.000;2022-12-07T02:30:29;31.93;;;20.43;;
14883;SDS011;7534;50.762;7.000;2022-12-07T02:36:00;32.43;;;19.57;;
14883;SDS011;7534;50.762;7.000;2022-12-07T02:38:46;30.10;;;20.40;;
14883;SDS011;7534;50.762;7.000;2022-12-07T02:41:47;30.93;;;20.37;;
14883;SDS011;7534;50.762;7.000;2022-12-07T02:44:20;30.73;;;20.83;;
14883;SDS011;7534;50.762;7.000;2022-12-07T02:46:53;33.33;;;20.83;;
14883;SDS011;7534;50.762;7.000;2022-12-07T02:49:28;30.97;;;19.80;;
14883;SDS011;7534;50.762;7.000;2022-12-07T02:51:55;28.53;;;20.10;;
14883;SDS011;7534;50.762;7.000;2022-12-07T02:54:21;28.63;;;20.47;;
14883;SDS011;7534;50.762;7.000;2022-12-07T02:56:49;31.77;;;20.97;;
14883;SDS011;7534;50.762;7.000;2022-12-07T03:07:51;30.30;;;19.37;;
14883;SDS011;7534;50.762;7.000;2022-12-07T03:16:30;27.70;;;19.33;;
14883;SDS011;7534;50.762;7.000;2022-12-07T03:19:11;28.00;;;19.57;;
14883;SDS011;7534;50.762;7.000;2022-12-07T03:21:46;28.90;;;18.87;;
14883;SDS011;7534;50.762;7.000;2022-12-07T03:24:40;27.57;;;19.20;;
14883;SDS011;7534;50.762;7.000;2022-12-07T03:32:32;28.43;;;19.13;;
14883;SDS011;7534;50.762;7.000;2022-12-07T03:35:17;27.67;;;18.87;;
14883;SDS011;7534;50.762;7.000;2022-12-07T03:37:55;26.20;;;18.83;;
14883;SDS011;7534;50.762;7.000;2022-12-07T03:40:34;28.83;;;18.93;;
14883;SDS011;7534;50.762;7.000;2022-12-07T03:43:11;26.63;;;19.00;;
14883;SDS011;7534;50.762;7.000;2022-12-07T03:45:39;30.83;;;19.17;;
14883;SDS011;7534;50.762;7.000;2022-12-07T03:54:10;27.27;;;18.43;;
14883;SDS011;7534;50.762;7.000;2022-12-07T03:56:46;27.03;;;19.07;;
14883;SDS011;7534;50.762;7.000;2022-12-07T03:59:14;27.27;;;19.30;;
14883;SDS011;7534;50.762;7.000;2022-12-07T04:01:44;29.53;;;19.73;;
14883;SDS011;7534;50.762;7.000;2022-12-07T04:04:17;28.53;;;19.37;;
14883;SDS011;7534;50.762;7.000;2022-12-07T04:06:43;32.67;;;21.00;;
14883;SDS011;7534;50.762;7.000;2022-12-07T04:09:08;32.30;;;20.23;;
14883;SDS011;7534;50.762;7.000;2022-12-07T04:11:34;34.17;;;21.07;;
14883;SDS011;7534;50.762;7.000;2022-12-07T04:14:00;32.43;;;20.27;;
14883;SDS011;7534;50.762;7.000;2022-12-07T04:16:47;29.43;;;19.93;;
14883;SDS011;7534;50.762;7.000;2022-12-07T04:19:17;28.97;;;19.13;;
14883;SDS011;7534;50.762;7.000;2022-12-07T04:21:46;32.53;;;21.10;;
14883;SDS011;7534;50.762;7.000;2022-12-07T04:24:13;29.97;;;19.63;;
14883;SDS011;7534;50.762;7.000;2022-12-07T04:26:40;33.80;;;20.43;;
14883;SDS011;7534;50.762;7.000;2022-12-07T04:34:10;31.63;;;20.40;;
14883;SDS011;7534;50.762;7.000;2022-12-07T04:36:37;31.40;;;20.83;;
14883;SDS011;7534;50.762;7.000;2022-12-07T04:39:05;34.10;;;21.57;;
14883;SDS011;7534;50.762;7.000;2022-12-07T04:41:34;32.33;;;20.93;;
14883;SDS011;7534;50.762;7.000;2022-12-07T04:44:01;30.53;;;19.80;;
14883;SDS011;7534;50.762;7.000;2022-12-07T04:46:32;29.47;;;19.50;;
14883;SDS011;7534;50.762;7.000;2022-12-07T04:48:58;33.27;;;21.20;;
14883;SDS011;7534;50.762;7.000;2022-12-07T04:51:25;33.20;;;20.73;;
14883;SDS011;7534;50.762;7.000;2022-12-07T04:53:53;33.97;;;20.13;;
14883;SDS011;7534;50.762;7.000;2022-12-07T04:56:21;31.27;;;19.63;;
14883;SDS011;7534;50.762;7.000;2022-12-07T04:58:48;33.70;;;19.93;;
14883;SDS011;7534;50.762;7.000;2022-12-07T05:01:17;31.93;;;20.20;;
14883;SDS011;7534;50.762;7.000;2022-12-07T05:03:43;33.97;;;19.83;;
14883;SDS011;7534;50.762;7.000;2022-12-07T05:06:10;32.83;;;20.40;;
14883;SDS011;7534;50.762;7.000;2022-12-07T05:08:36;31.23;;;19.97;;
14883;SDS011;7534;50.762;7.000;2022-12-07T05:11:03;32.80;;;19.03;;
14883;SDS011;7534;50.762;7.000;2022-12-07T05:13:31;32.37;;;19.83;;
14883;SDS011;7534;50.762;7.000;2022-12-07T05:15:58;33.10;;;19.13;;
14883;SDS011;7534;50.762;7.000;2022-12-07T05:18:25;32.50;;;18.87;;
14883;SDS011;7534;50.762;7.000;2022-12-07T05:20:51;34.77;;;20.00;;
14883;SDS011;7534;50.762;7.000;2022-12-07T05:23:17;31.07;;;18.17;;
14883;SDS011;7534;50.762;7.000;2022-12-07T05:25:43;31.30;;;18.87;;
14883;SDS011;7534;50.762;7.000;2022-12-07T05:28:09;34.27;;;17.83;;
14883;SDS011;7534;50.762;7.000;2022-12-07T05:30:35;35.03;;;18.77;;
14883;SDS011;7534;50.762;7.000;2022-12-07T05:33:01;31.37;;;18.77;;
14883;SDS011;7534;50.762;7.000;2022-12-07T05:35:28;31.37;;;19.27;;
14883;SDS011;7534;50.762;7.000;2022-12-07T05:37:54;32.90;;;18.70;;
14883;SDS011;7534;50.762;7.000;2022-12-07T05:40:22;31.10;;;18.80;;
14883;SDS011;7534;50.762;7.000;2022-12-07T05:42:48;32.73;;;18.77;;
14883;SDS011;7534;50.762;7.000;2022-12-07T05:45:15;36.80;;;19.37;;
14883;SDS011;7534;50.762;7.000;2022-12-07T05:47:41;33.57;;;19.80;;
14883;SDS011;7534;50.762;7.000;2022-12-07T05:50:08;30.60;;;18.17;;
14883;SDS011;7534;50.762;7.000;2022-12-07T05:52:34;35.93;;;20.00;;
14883;SDS011;7534;50.762;7.000;2022-12-07T06:00:26;36.23;;;19.97;;
14883;SDS011;7534;50.762;7.000;2022-12-07T06:02:52;34.63;;;18.97;;
14883;SDS011;7534;50.762;7.000;2022-12-07T06:05:18;35.03;;;19.77;;
14883;SDS011;7534;50.762;7.000;2022-12-07T06:07:43;37.73;;;20.00;;
14883;SDS011;7534;50.762;7.000;2022-12-07T06:10:10;37.87;;;19.80;;
14883;SDS011;7534;50.762;7.000;2022-12-07T06:12:36;34.80;;;20.20;;
14883;SDS011;7534;50.762;7.000;2022-12-07T06:15:04;40.43;;;25.13;;
14883;SDS011;7534;50.762;7.000;2022-12-07T06:17:33;36.33;;;20.37;;
14883;SDS011;7534;50.762;7.000;2022-12-07T06:20:02;32.73;;;19.70;;
14883;SDS011;7534;50.762;7.000;2022-12-07T06:22:30;36.73;;;20.07;;
14883;SDS011;7534;50.762;7.000;2022-12-07T06:24:59;34.07;;;19.37;;
14883;SDS011;7534;50.762;7.000;2022-12-07T06:27:27;34.20;;;19.37;;
14883;SDS011;7534;50.762;7.000;2022-12-07T06:29:53;33.43;;;20.07;;
14883;SDS011;7534;50.762;7.000;2022-12-07T06:32:18;33.10;;;19.17;;
14883;SDS011;7534;50.762;7.000;2022-12-07T06:34:46;34.77;;;20.03;;
14883;SDS011;7534;50.762;7.000;2022-12-07T06:37:17;34.67;;;19.73;;
14883;SDS011;7534;50.762;7.000;2022-12-07T06:39:44;29.40;;;18.97;;
14883;SDS011;7534;50.762;7.000;2022-12-07T06:42:11;32.23;;;19.23;;
14883;SDS011;7534;50.762;7.000;2022-12-07T06:44:37;33.73;;;19.90;;
14883;SDS011;7534;50.762;7.000;2022-12-07T06:47:03;34.83;;;18.53;;
14883;SDS011;7534;50.762;7.000;2022-12-07T06:49:29;35.00;;;19.43;;
14883;SDS011;7534;50.762;7.000;2022-12-07T06:51:56;30.53;;;18.07;;
14883;SDS011;7534;50.762;7.000;2022-12-07T06:54:22;27.50;;;16.20;;
14883;SDS011;7534;50.762;7.000;2022-12-07T06:56:48;25.90;;;16.53;;
14883;SDS011;7534;50.762;7.000;2022-12-07T06:59:13;27.00;;;15.70;;
14883;SDS011;7534;50.762;7.000;2022-12-07T07:01:39;25.23;;;14.70;;
14883;SDS011;7534;50.762;7.000;2022-12-07T07:04:05;24.33;;;14.60;;
14883;SDS011;7534;50.762;7.000;2022-12-07T07:06:32;25.03;;;13.67;;
14883;SDS011;7534;50.762;7.000;2022-12-07T07:08:58;20.43;;;12.93;;
14883;SDS011;7534;50.762;7.000;2022-12-07T07:11:23;24.00;;;13.47;;
14883;SDS011;7534;50.762;7.000;2022-12-07T07:13:49;22.53;;;13.07;;
14883;SDS011;7534;50.762;7.000;2022-12-07T07:16:15;23.23;;;14.60;;
14883;SDS011;7534;50.762;7.000;2022-12-07T07:18:41;26.53;;;16.63;;
14883;SDS011;7534;50.762;7.000;2022-12-07T07:21:06;27.23;;;15.67;;
14883;SDS011;7534;50.762;7.000;2022-12-07T07:23:32;25.67;;;15.20;;
14883;SDS011;7534;50.762;7.000;2022-12-07T07:25:59;26.53;;;16.10;;
14883;SDS011;7534;50.762;7.000;2022-12-07T07:28:25;28.53;;;17.07;;
14883;SDS011;7534;50.762;7.000;2022-12-07T07:30:52;34.97;;;18.07;;
14883;SDS011;7534;50.762;7.000;2022-12-07T07:33:18;32.37;;;18.37;;
14883;SDS011;7534;50.762;7.000;2022-12-07T07:35:44;31.30;;;17.93;;
14883;SDS011;7534;50.762;7.000;2022-12-07T07:38:10;35.13;;;17.53;;
14883;SDS011;7534;50.762;7.000;2022-12-07T07:40:55;32.63;;;19.70;;
14883;SDS011;7534;50.762;7.000;2022-12-07T07:43:21;30.27;;;17.70;;
14883;SDS011;7534;50.762;7.000;2022-12-07T07:45:47;30.20;;;17.20;;
14883;SDS011;7534;50.762;7.000;2022-12-07T07:48:13;35.33;;;19.10;;
14883;SDS011;7534;50.762;7.000;2022-12-07T07:50:40;31.87;;;17.93;;
14883;SDS011;7534;50.762;7.000;2022-12-07T07:53:06;33.40;;;19.00;;
14883;SDS011;7534;50.762;7.000;2022-12-07T07:55:35;32.50;;;18.80;;
14883;SDS011;7534;50.762;7.000;2022-12-07T07:58:01;29.17;;;17.43;;
14883;SDS011;7534;50.762;7.000;2022-12-07T08:00:28;31.83;;;17.70;;
14883;SDS011;7534;50.762;7.000;2022-12-07T08:02:56;30.70;;;18.13;;
14883;SDS011;7534;50.762;7.000;2022-12-07T08:05:22;30.80;;;18.23;;
14883;SDS011;7534;50.762;7.000;2022-12-07T08:07:54;31.40;;;17.57;;
14883;SDS011;7534;50.762;7.000;2022-12-07T08:10:24;28.63;;;16.90;;
14883;SDS011;7534;50.762;7.000;2022-12-07T08:12:49;30.40;;;17.27;;
14883;SDS011;7534;50.762;7.000;2022-12-07T08:15:46;28.47;;;16.30;;
14883;SDS011;7534;50.762;7.000;2022-12-07T08:18:13;28.97;;;16.03;;
14883;SDS011;7534;50.762;7.000;2022-12-07T08:20:44;25.83;;;15.53;;
14883;SDS011;7534;50.762;7.000;2022-12-07T08:23:13;29.13;;;16.47;;
14883;SDS011;7534;50.762;7.000;2022-12-07T08:25:40;30.00;;;17.07;;
14883;SDS011;7534;50.762;7.000;2022-12-07T08:28:06;29.30;;;17.63;;
14883;SDS011;7534;50.762;7.000;2022-12-07T08:30:32;29.17;;;17.47;;
14883;SDS011;7534;50.762;7.000;2022-12-07T08:32:58;31.33;;;17.23;;
14883;SDS011;7534;50.762;7.000;2022-12-07T08:35:25;28.57;;;17.07;;
14883;SDS011;7534;50.762;7.000;2022-12-07T08:37:53;31.27;;;18.23;;
14883;SDS011;7534;50.762;7.000;2022-12-07T08:40:21;29.40;;;17.07;;
14883;SDS011;7534;50.762;7.000;2022-12-07T08:42:50;32.30;;;20.70;;
14883;SDS011;7534;50.762;7.000;2022-12-07T08:45:17;29.80;;;17.87;;
14883;SDS011;7534;50.762;7.000;2022-12-07T08:47:46;30.03;;;17.40;;
14883;SDS011;7534;50.762;7.000;2022-12-07T08:50:23;29.33;;;17.10;;
14883;SDS011;7534;50.762;7.000;2022-12-07T08:52:53;26.37;;;15.97;;
14883;SDS011;7534;50.762;7.000;2022-12-07T08:55:23;26.53;;;15.20;;
14883;SDS011;7534;50.762;7.000;2022-12-07T08:57:49;27.70;;;16.10;;
14883;SDS011;7534;50.762;7.000;2022-12-07T09:00:16;25.13;;;15.40;;
14883;SDS011;7534;50.762;7.000;2022-12-07T09:02:46;25.20;;;15.10;;
14883;SDS011;7534;50.762;7.000;2022-12-07T09:05:12;26.07;;;15.87;;
14883;SDS011;7534;50.762;7.000;2022-12-07T09:07:42;24.83;;;15.70;;
14883;SDS011;7534;50.762;7.000;2022-12-07T09:10:11;26.20;;;16.57;;
14883;SDS011;7534;50.762;7.000;2022-12-07T09:12:37;25.70;;;15.37;;
14883;SDS011;7534;50.762;7.000;2022-12-07T09:15:02;24.37;;;15.30;;
14883;SDS011;7534;50.762;7.000;2022-12-07T09:17:31;22.43;;;13.90;;
14883;SDS011;7534;50.762;7.000;2022-12-07T09:19:59;18.77;;;13.37;;
14883;SDS011;7534;50.762;7.000;2022-12-07T09:22:28;17.10;;;12.53;;
14883;SDS011;7534;50.762;7.000;2022-12-07T09:24:56;20.98;;;16.05;;
14883;SDS011;7534;50.762;7.000;2022-12-07T09:27:22;20.00;;;13.27;;
14883;SDS011;7534;50.762;7.000;2022-12-07T09:29:49;18.57;;;12.10;;
14883;SDS011;7534;50.762;7.000;2022-12-07T09:32:14;18.00;;;11.20;;
14883;SDS011;7534;50.762;7.000;2022-12-07T09:34:41;15.67;;;11.57;;
14883;SDS011;7534;50.762;7.000;2022-12-07T09:37:07;19.63;;;12.37;;
14883;SDS011;7534;50.762;7.000;2022-12-07T09:39:40;18.30;;;11.83;;
14883;SDS011;7534;50.762;7.000;2022-12-07T09:42:06;16.47;;;11.23;;
14883;SDS011;7534;50.762;7.000;2022-12-07T09:44:36;15.60;;;10.83;;
14883;SDS011;7534;50.762;7.000;2022-12-07T09:47:01;15.50;;;11.03;;
14883;SDS011;7534;50.762;7.000;2022-12-07T09:49:28;17.80;;;11.70;;
14883;SDS011;7534;50.762;7.000;2022-12-07T09:52:00;18.10;;;11.63;;
14883;SDS011;7534;50.762;7.000;2022-12-07T09:54:46;20.23;;;10.80;;
14883;SDS011;7534;50.762;7.000;2022-12-07T09:57:15;16.00;;;10.23;;
14883;SDS011;7534;50.762;7.000;2022-12-07T09:59:43;17.00;;;10.50;;
14883;SDS011;7534;50.762;7.000;2022-12-07T10:05:00;16.23;;;9.80;;
14883;SDS011;7534;50.762;7.000;2022-12-07T10:07:29;17.40;;;13.00;;
14883;SDS011;7534;50.762;7.000;2022-12-07T10:09:55;13.93;;;10.13;;
14883;SDS011;7534;50.762;7.000;2022-12-07T10:12:20;14.20;;;9.87;;
14883;SDS011;7534;50.762;7.000;2022-12-07T10:14:57;13.97;;;9.07;;
14883;SDS011;7534;50.762;7.000;2022-12-07T10:25:30;11.43;;;8.80;;
14883;SDS011;7534;50.762;7.000;2022-12-07T10:31:20;14.90;;;9.27;;
14883;SDS011;7534;50.762;7.000;2022-12-07T10:36:25;13.17;;;9.10;;
14883;SDS011;7534;50.762;7.000;2022-12-07T10:43:19;17.63;;;8.57;;
14883;SDS011;7534;50.762;7.000;2022-12-07T11:15:58;9.43;;;5.93;;
14883;SDS011;7534;50.762;7.000;2022-12-07T11:33:14;6.63;;;4.90;;
14883;SDS011;7534;50.762;7.000;2022-12-07T11:36:37;8.83;;;4.67;;
14883;SDS011;7534;50.762;7.000;2022-12-07T11:50:41;8.00;;;4.60;;
14883;SDS011;7534;50.762;7.000;2022-12-07T11:57:26;8.20;;;4.50;;
14883;SDS011;7534;50.762;7.000;2022-12-07T12:07:32;9.53;;;4.60;;
14883;SDS011;7534;50.762;7.000;2022-12-07T12:21:18;8.90;;;4.73;;
14883;SDS011;7534;50.762;7.000;2022-12-07T12:27:46;10.80;;;5.53;;
14883;SDS011;7534;50.762;7.000;2022-12-07T12:51:53;9.20;;;4.47;;
14883;SDS011;7534;50.762;7.000;2022-12-07T12:54:56;11.23;;;4.90;;
14883;SDS011;7534;50.762;7.000;2022-12-07T12:58:41;9.37;;;5.20;;
14883;SDS011;7534;50.762;7.000;2022-12-07T13:02:24;9.70;;;5.30;;
14883;SDS011;7534;50.762;7.000;2022-12-07T13:09:31;10.83;;;6.20;;
14883;SDS011;7534;50.762;7.000;2022-12-07T13:12:22;11.50;;;6.17;;
14883;SDS011;7534;50.762;7.000;2022-12-07T13:18:49;11.63;;;5.87;;
14883;SDS011;7534;50.762;7.000;2022-12-07T13:45:38;8.70;;;5.70;;
14883;SDS011;7534;50.762;7.000;2022-12-07T13:48:32;14.50;;;6.17;;
14883;SDS011;7534;50.762;7.000;2022-12-07T13:51:27;10.77;;;6.37;;
14883;SDS011;7534;50.762;7.000;2022-12-07T13:54:12;8.83;;;5.67;;
14883;SDS011;7534;50.762;7.000;2022-12-07T13:57:16;7.13;;;3.57;;
14883;SDS011;7534;50.762;7.000;2022-12-07T14:00:21;7.57;;;3.80;;
14883;SDS011;7534;50.762;7.000;2022-12-07T14:03:30;9.27;;;4.60;;
14883;SDS011;7534;50.762;7.000;2022-12-07T14:06:22;8.70;;;5.23;;
14883;SDS011;7534;50.762;7.000;2022-12-07T14:12:11;8.67;;;5.43;;
14883;SDS011;7534;50.762;7.000;2022-12-07T14:14:46;8.67;;;5.20;;
14883;SDS011;7534;50.762;7.000;2022-12-07T14:17:21;7.53;;;4.23;;
14883;SDS011;7534;50.762;7.000;2022-12-07T14:20:01;4.37;;;2.83;;
14883;SDS011;7534;50.762;7.000;2022-12-07T14:22:35;2.60;;;2.40;;
14883;SDS011;7534;50.762;7.000;2022-12-07T14:27:38;3.23;;;2.33;;
14883;SDS011;7534;50.762;7.000;2022-12-07T14:30:14;5.40;;;2.50;;
14883;SDS011;7534;50.762;7.000;2022-12-07T14:32:42;2.60;;;2.40;;
14883;SDS011;7534;50.762;7.000;2022-12-07T14:35:15;3.93;;;2.43;;
14883;SDS011;7534;50.762;7.000;2022-12-07T14:37:45;5.80;;;2.90;;
14883;SDS011;7534;50.762;7.000;2022-12-07T14:40:31;5.97;;;3.20;;
14883;SDS011;7534;50.762;7.000;2022-12-07T14:43:01;6.70;;;3.67;;
14883;SDS011;7534;50.762;7.000;2022-12-07T14:45:31;6.00;;;3.77;;
14883;SDS011;7534;50.762;7.000;2022-12-07T14:47:57;6.60;;;4.67;;
14883;SDS011;7534;50.762;7.000;2022-12-07T14:50:23;7.13;;;4.93;;
14883;SDS011;7534;50.762;7.000;2022-12-07T14:52:51;7.53;;;5.07;;
14883;SDS011;7534;50.762;7.000;2022-12-07T14:55:25;8.63;;;5.40;;
14883;SDS011;7534;50.762;7.000;2022-12-07T14:57:54;7.30;;;5.50;;
14883;SDS011;7534;50.762;7.000;2022-12-07T15:00:23;7.03;;;5.23;;
14883;SDS011;7534;50.762;7.000;2022-12-07T15:02:53;10.80;;;7.78;;
14883;SDS011;7534;50.762;7.000;2022-12-07T15:05:19;12.23;;;7.10;;
14883;SDS011;7534;50.762;7.000;2022-12-07T15:07:46;13.10;;;7.60;;
14883;SDS011;7534;50.762;7.000;2022-12-07T15:10:18;11.40;;;6.90;;
14883;SDS011;7534;50.762;7.000;2022-12-07T15:12:47;8.37;;;6.07;;
14883;SDS011;7534;50.762;7.000;2022-12-07T15:15:13;8.30;;;5.83;;
14883;SDS011;7534;50.762;7.000;2022-12-07T15:17:40;9.60;;;6.40;;
14883;SDS011;7534;50.762;7.000;2022-12-07T15:20:07;10.90;;;6.33;;
14883;SDS011;7534;50.762;7.000;2022-12-07T15:22:37;10.77;;;5.97;;
14883;SDS011;7534;50.762;7.000;2022-12-07T15:25:03;9.43;;;6.20;;
14883;SDS011;7534;50.762;7.000;2022-12-07T15:27:30;8.43;;;6.00;;
14883;SDS011;7534;50.762;7.000;2022-12-07T15:29:56;9.67;;;6.13;;
14883;SDS011;7534;50.762;7.000;2022-12-07T15:32:22;11.87;;;6.17;;
14883;SDS011;7534;50.762;7.000;2022-12-07T15:34:48;11.43;;;6.07;;
14883;SDS011;7534;50.762;7.000;2022-12-07T15:37:15;9.13;;;6.40;;
14883;SDS011;7534;50.762;7.000;2022-12-07T15:39:41;10.30;;;6.50;;
14883;SDS011;7534;50.762;7.000;2022-12-07T15:42:07;9.47;;;6.60;;
14883;SDS011;7534;50.762;7.000;2022-12-07T15:44:33;10.53;;;6.67;;
14883;SDS011;7534;50.762;7.000;2022-12-07T15:47:17;12.87;;;6.93;;
14883;SDS011;7534;50.762;7.000;2022-12-07T15:49:43;9.07;;;6.67;;
14883;SDS011;7534;50.762;7.000;2022-12-07T15:52:08;10.83;;;7.00;;
14883;SDS011;7534;50.762;7.000;2022-12-07T15:54:34;10.77;;;6.60;;
14883;SDS011;7534;50.762;7.000;2022-12-07T15:57:01;10.40;;;7.03;;
14883;SDS011;7534;50.762;7.000;2022-12-07T15:59:27;11.80;;;7.40;;
14883;SDS011;7534;50.762;7.000;2022-12-07T16:01:53;9.53;;;6.73;;
14883;SDS011;7534;50.762;7.000;2022-12-07T16:04:20;10.83;;;7.53;;
14883;SDS011;7534;50.762;7.000;2022-12-07T16:06:45;11.47;;;7.07;;
14883;SDS011;7534;50.762;7.000;2022-12-07T16:09:11;11.37;;;7.23;;
14883;SDS011;7534;50.762;7.000;2022-12-07T16:11:37;9.77;;;7.80;;
14883;SDS011;7534;50.762;7.000;2022-12-07T16:14:04;11.40;;;7.63;;
14883;SDS011;7534;50.762;7.000;2022-12-07T16:16:30;14.90;;;7.90;;
14883;SDS011;7534;50.762;7.000;2022-12-07T16:18:56;11.47;;;7.90;;
14883;SDS011;7534;50.762;7.000;2022-12-07T16:21:23;11.17;;;7.50;;
14883;SDS011;7534;50.762;7.000;2022-12-07T16:23:48;10.07;;;7.73;;
14883;SDS011;7534;50.762;7.000;2022-12-07T16:26:15;9.43;;;7.30;;
14883;SDS011;7534;50.762;7.000;2022-12-07T16:28:43;11.23;;;6.70;;
14883;SDS011;7534;50.762;7.000;2022-12-07T16:31:14;11.10;;;7.60;;
14883;SDS011;7534;50.762;7.000;2022-12-07T16:33:43;9.77;;;7.50;;
14883;SDS011;7534;50.762;7.000;2022-12-07T16:36:11;10.37;;;7.30;;
14883;SDS011;7534;50.762;7.000;2022-12-07T16:38:40;14.40;;;8.00;;
14883;SDS011;7534;50.762;7.000;2022-12-07T16:41:08;14.20;;;8.43;;
14883;SDS011;7534;50.762;7.000;2022-12-07T16:43:34;11.40;;;8.07;;
14883;SDS011;7534;50.762;7.000;2022-12-07T16:46:01;11.13;;;8.40;;
14883;SDS011;7534;50.762;7.000;2022-12-07T16:48:28;16.73;;;8.60;;
14883;SDS011;7534;50.762;7.000;2022-12-07T16:50:54;13.33;;;8.87;;
14883;SDS011;7534;50.762;7.000;2022-12-07T16:53:20;15.30;;;10.57;;
14883;SDS011;7534;50.762;7.000;2022-12-07T16:55:49;14.07;;;9.70;;
14883;SDS011;7534;50.762;7.000;2022-12-07T16:58:16;13.70;;;9.77;;
14883;SDS011;7534;50.762;7.000;2022-12-07T17:00:42;13.00;;;9.23;;
14883;SDS011;7534;50.762;7.000;2022-12-07T17:03:09;12.27;;;8.83;;
14883;SDS011;7534;50.762;7.000;2022-12-07T17:05:40;14.17;;;10.10;;
14883;SDS011;7534;50.762;7.000;2022-12-07T17:08:08;15.27;;;9.27;;
14883;SDS011;7534;50.762;7.000;2022-12-07T17:10:36;14.27;;;9.53;;
14883;SDS011;7534;50.762;7.000;2022-12-07T17:13:05;17.90;;;10.17;;
14883;SDS011;7534;50.762;7.000;2022-12-07T17:15:57;15.17;;;10.93;;
14883;SDS011;7534;50.762;7.000;2022-12-07T17:18:30;14.70;;;11.03;;
14883;SDS011;7534;50.762;7.000;2022-12-07T17:21:06;16.33;;;10.97;;
14883;SDS011;7534;50.762;7.000;2022-12-07T17:23:34;16.70;;;11.57;;
14883;SDS011;7534;50.762;7.000;2022-12-07T17:26:05;15.83;;;11.43;;
14883;SDS011;7534;50.762;7.000;2022-12-07T17:28:34;18.83;;;13.07;;
14883;SDS011;7534;50.762;7.000;2022-12-07T17:31:01;16.43;;;11.70;;
14883;SDS011;7534;50.762;7.000;2022-12-07T17:33:32;18.90;;;12.30;;
14883;SDS011;7534;50.762;7.000;2022-12-07T17:35:58;23.33;;;17.73;;
14883;SDS011;7534;50.762;7.000;2022-12-07T17:38:25;17.43;;;13.80;;
14883;SDS011;7534;50.762;7.000;2022-12-07T17:40:52;15.80;;;12.30;;
14883;SDS011;7534;50.762;7.000;2022-12-07T17:43:18;18.27;;;12.53;;
14883;SDS011;7534;50.762;7.000;2022-12-07T17:45:45;21.03;;;12.10;;
14883;SDS011;7534;50.762;7.000;2022-12-07T17:48:18;20.03;;;13.17;;
14883;SDS011;7534;50.762;7.000;2022-12-07T17:50:44;15.17;;;12.20;;
14883;SDS011;7534;50.762;7.000;2022-12-07T17:53:31;16.50;;;12.23;;
14883;SDS011;7534;50.762;7.000;2022-12-07T17:55:56;19.33;;;12.93;;
14883;SDS011;7534;50.762;7.000;2022-12-07T17:58:23;19.23;;;12.70;;
14883;SDS011;7534;50.762;7.000;2022-12-07T18:00:49;17.47;;;12.27;;
14883;SDS011;7534;50.762;7.000;2022-12-07T18:03:15;17.53;;;13.03;;
14883;SDS011;7534;50.762;7.000;2022-12-07T18:05:41;17.73;;;12.30;;
14883;SDS011;7534;50.762;7.000;2022-12-07T18:08:09;19.07;;;12.57;;
14883;SDS011;7534;50.762;7.000;2022-12-07T18:10:35;16.60;;;12.40;;
14883;SDS011;7534;50.762;7.000;2022-12-07T18:13:01;19.07;;;12.23;;
14883;SDS011;7534;50.762;7.000;2022-12-07T18:15:46;16.70;;;11.73;;
14883;SDS011;7534;50.762;7.000;2022-12-07T18:18:11;16.67;;;11.90;;
14883;SDS011;7534;50.762;7.000;2022-12-07T18:20:37;20.80;;;12.20;;
14883;SDS011;7534;50.762;7.000;2022-12-07T18:23:03;17.17;;;12.93;;
14883;SDS011;7534;50.762;7.000;2022-12-07T18:25:29;20.17;;;12.17;;
14883;SDS011;7534;50.762;7.000;2022-12-07T18:27:56;18.60;;;11.73;;
14883;SDS011;7534;50.762;7.000;2022-12-07T18:30:21;18.87;;;12.43;;
14883;SDS011;7534;50.762;7.000;2022-12-07T18:32:47;16.50;;;12.10;;
14883;SDS011;7534;50.762;7.000;2022-12-07T18:35:14;18.40;;;11.63;;